Tampa, Florida
Traffic Map
Current Weather Conditions
Tampa, Florida
Broken Clouds
Broken Clouds
78°
Feels Like: 80°
Wind Chill: 78° Ceiling: 14000
Heat Index: 80° Visibility: 10mi
Dew Point: 69° Wind: 3mph
Humidity: 74% Direction: 140° (SE)
Pressure: 29.98in Gusts: 0mph
Raw Report DataKTPA 270153Z 14003KT 10SM FEW030 SCT090 BKN140 BKN220 26/21 A2998 RMK AO2 SLP151 T02560206
Traffic Incident Summary
Active as of:
Severity:
Category:
InformationThere was an issue retrieving the traffic information for this location. Please try a different location or try again shortly.
Advertisements
Track Severe Weather on mobile